createdAt,value
2023-05-07T00:00:26.963Z,100145.84
2023-05-07T00:02:56.700Z,100142.03
2023-05-07T00:05:26.434Z,100136.78
2023-05-07T00:07:59.759Z,100139.88
2023-05-07T00:10:29.808Z,100133.22
2023-05-07T00:12:59.549Z,100139.63
2023-05-07T00:15:29.317Z,100136.69
2023-05-07T00:18:00.577Z,100135.63
2023-05-07T00:20:30.527Z,100128.72
2023-05-07T00:23:02.794Z,100130.16
2023-05-07T00:25:32.578Z,100130.13
2023-05-07T00:28:05.018Z,100125.97
2023-05-07T00:30:34.754Z,100135.34
2023-05-07T00:33:04.564Z,100129.19
2023-05-07T00:35:34.260Z,100126.56
2023-05-07T00:38:06.537Z,100117.56
2023-05-07T00:40:36.572Z,100114.19
2023-05-07T00:43:06.305Z,100095.53
2023-05-07T00:45:37.716Z,100099.84
2023-05-07T00:48:08.306Z,100092.13
2023-05-07T00:50:38.124Z,100088.53
2023-05-07T00:53:11.173Z,100085.34
2023-05-07T00:55:41.483Z,100086.38
2023-05-07T00:58:11.263Z,100078.25
2023-05-07T01:00:41.789Z,100083.72
2023-05-07T01:03:11.617Z,100078.34
2023-05-07T01:05:42.282Z,100081.13
2023-05-07T01:08:15.108Z,100083.13
2023-05-07T01:10:45.758Z,100085.00
2023-05-07T01:13:17.538Z,100080.56
2023-05-07T01:15:47.629Z,100078.91
2023-05-07T01:18:17.431Z,100085.22
2023-05-07T01:20:47.459Z,100089.84
2023-05-07T01:23:21.463Z,100086.03
2023-05-07T01:25:55.486Z,100083.22
2023-05-07T01:28:27.383Z,100072.91
2023-05-07T01:31:05.432Z,100070.91
2023-05-07T01:33:38.823Z,100081.31
2023-05-07T01:36:10.078Z,100083.34
2023-05-07T01:38:44.583Z,100084.91
2023-05-07T01:41:16.311Z,100080.16
2023-05-07T01:43:46.764Z,100082.88
2023-05-07T01:46:16.879Z,100084.69
2023-05-07T01:48:47.805Z,100093.09
2023-05-07T01:51:17.637Z,100095.00
2023-05-07T01:53:51.920Z,100103.09
2023-05-07T01:56:23.065Z,100102.44
2023-05-07T01:58:53.832Z,100103.91
2023-05-07T02:01:23.695Z,100102.00
2023-05-07T02:03:54.978Z,100112.91
2023-05-07T02:06:28.616Z,100110.50
2023-05-07T02:09:05.728Z,100108.94
2023-05-07T02:11:35.549Z,100110.84
2023-05-07T02:14:05.357Z,100119.56
2023-05-07T02:16:35.324Z,100117.53
2023-05-07T02:19:05.189Z,100128.75
2023-05-07T02:21:35.167Z,100130.31
2023-05-07T02:24:07.970Z,100135.78
2023-05-07T02:26:37.998Z,100134.63
2023-05-07T02:29:07.977Z,100139.25
2023-05-07T02:31:37.805Z,100147.38
2023-05-07T02:34:07.701Z,100147.59
2023-05-07T02:36:37.688Z,100148.91
2023-05-07T02:39:14.801Z,100149.34
2023-05-07T02:41:44.653Z,100130.59
2023-05-07T02:44:14.377Z,100129.63
2023-05-07T02:46:44.259Z,100136.50
2023-05-07T02:49:15.966Z,100139.63
2023-05-07T02:51:45.956Z,100147.66
2023-05-07T02:54:25.586Z,100150.53
2023-05-07T02:56:55.456Z,100151.88
2023-05-07T02:59:25.199Z,100151.50
2023-05-07T03:01:54.973Z,100144.72
2023-05-07T03:04:24.881Z,100142.22
2023-05-07T03:06:54.986Z,100137.44
2023-05-07T03:09:27.420Z,100137.22
2023-05-07T03:11:57.267Z,100152.03
2023-05-07T03:14:27.114Z,100158.06
2023-05-07T03:16:57.110Z,100167.75
2023-05-07T03:19:26.995Z,100159.47
2023-05-07T03:21:56.721Z,100155.59
2023-05-07T03:24:29.015Z,100151.03
2023-05-07T03:26:58.763Z,100142.84
2023-05-07T03:29:29.077Z,100146.59
2023-05-07T03:31:58.846Z,100151.97
2023-05-07T03:34:28.647Z,100146.41
2023-05-07T03:37:01.302Z,100153.00
2023-05-07T03:39:33.583Z,100142.22
2023-05-07T03:42:04.108Z,100147.63
2023-05-07T03:44:37.364Z,100137.97
2023-05-07T03:47:07.670Z,100126.28
2023-05-07T03:49:37.984Z,100131.13
2023-05-07T03:52:08.238Z,100128.09
2023-05-07T03:54:41.053Z,100126.44
2023-05-07T03:57:10.763Z,100111.78
2023-05-07T03:59:41.026Z,100109.16
2023-05-07T04:02:12.144Z,100106.94
2023-05-07T04:04:41.888Z,100111.91
2023-05-07T04:07:12.432Z,100113.41
2023-05-07T04:09:48.945Z,100113.66
2023-05-07T04:12:18.951Z,100111.53
2023-05-07T04:14:48.955Z,100109.53
2023-05-07T04:17:19.039Z,100120.41
2023-05-07T04:19:48.907Z,100116.28
2023-05-07T04:22:19.599Z,100120.84
2023-05-07T04:24:54.582Z,100122.25
2023-05-07T04:27:24.325Z,100116.94
2023-05-07T04:29:56.972Z,100115.63
2023-05-07T04:32:27.904Z,100114.78
2023-05-07T04:34:57.869Z,100118.97
2023-05-07T04:37:27.698Z,100111.69
2023-05-07T04:40:01.616Z,100106.78
2023-05-07T04:42:32.538Z,100110.41
2023-05-07T04:45:06.031Z,100107.34
2023-05-07T04:47:38.457Z,100115.88
2023-05-07T04:50:10.069Z,100124.75
2023-05-07T04:52:40.292Z,100131.06
2023-05-07T04:55:13.977Z,100125.97
2023-05-07T04:57:44.816Z,100122.53
2023-05-07T05:00:17.807Z,100112.44
2023-05-07T05:02:49.148Z,100129.28
2023-05-07T05:05:24.086Z,100126.47
2023-05-07T05:07:56.669Z,100126.81
2023-05-07T05:10:29.496Z,100117.53
2023-05-07T05:12:59.861Z,100128.84
2023-05-07T05:15:33.601Z,100118.75
2023-05-07T05:18:04.139Z,100119.22
2023-05-07T05:20:34.437Z,100126.94
2023-05-07T05:23:04.189Z,100116.72
2023-05-07T05:25:38.523Z,100124.22
2023-05-07T05:28:08.616Z,100114.59
2023-05-07T05:30:38.434Z,100105.44
2023-05-07T05:33:08.252Z,100110.06
2023-05-07T05:35:38.474Z,100102.13
2023-05-07T05:38:11.265Z,100104.31
2023-05-07T05:40:44.867Z,100102.59
2023-05-07T05:43:14.919Z,100097.81
2023-05-07T05:45:44.980Z,100101.13
2023-05-07T05:48:14.900Z,100099.47
2023-05-07T05:50:46.431Z,100106.97
2023-05-07T05:53:17.167Z,100108.28
2023-05-07T05:55:50.102Z,100105.88
2023-05-07T05:58:20.710Z,100100.66
2023-05-07T06:00:56.094Z,100108.84
2023-05-07T06:03:28.527Z,100117.28
2023-05-07T06:06:01.265Z,100115.25
2023-05-07T06:08:33.548Z,100120.50
2023-05-07T06:11:06.841Z,100118.97
2023-05-07T06:13:39.758Z,100130.13
2023-05-07T06:16:10.798Z,100147.13
2023-05-07T06:18:41.024Z,100135.50
2023-05-07T06:21:10.833Z,100125.59
2023-05-07T06:23:42.019Z,100125.34
2023-05-07T06:26:14.957Z,100111.69
2023-05-07T06:28:47.724Z,100111.47
2023-05-07T06:31:21.724Z,100115.38
2023-05-07T06:34:00.193Z,100110.13
2023-05-07T06:36:36.224Z,100109.13
2023-05-07T06:39:14.243Z,100121.56
2023-05-07T06:41:46.762Z,100119.91
2023-05-07T06:44:26.425Z,100119.56
2023-05-07T06:47:06.485Z,100120.91
2023-05-07T06:49:36.779Z,100123.66
2023-05-07T06:52:07.133Z,100125.34
2023-05-07T06:54:37.460Z,100132.19
2023-05-07T06:57:09.838Z,100130.00
2023-05-07T06:59:39.788Z,100131.22
2023-05-07T07:02:10.121Z,100131.16
2023-05-07T07:04:40.238Z,100130.94
2023-05-07T07:07:13.510Z,100127.88
2023-05-07T07:09:44.580Z,100135.09
2023-05-07T07:12:18.022Z,100136.28
2023-05-07T07:14:47.831Z,100133.53
2023-05-07T07:17:18.296Z,100135.50
2023-05-07T07:19:48.276Z,100127.88
2023-05-07T07:22:18.128Z,100127.22
2023-05-07T07:24:47.964Z,100140.06
2023-05-07T07:27:23.086Z,100141.75
2023-05-07T07:29:53.197Z,100132.66
2023-05-07T07:32:23.387Z,100142.41
2023-05-07T07:34:53.350Z,100129.09
2023-05-07T07:37:23.195Z,100121.72
2023-05-07T07:39:53.156Z,100137.44
2023-05-07T07:42:26.726Z,100137.75
2023-05-07T07:44:58.341Z,100127.16
2023-05-07T07:47:32.581Z,100124.38
2023-05-07T07:50:02.599Z,100129.03
2023-05-07T07:52:32.903Z,100132.75
2023-05-07T07:55:02.846Z,100127.66
2023-05-07T07:57:36.861Z,100134.78
2023-05-07T08:00:10.699Z,100129.41
2023-05-07T08:02:46.659Z,100138.13
2023-05-07T08:05:24.078Z,100140.34
2023-05-07T08:07:55.179Z,100155.72
2023-05-07T08:10:29.972Z,100152.88
2023-05-07T08:13:09.972Z,100152.44
2023-05-07T08:15:41.773Z,100151.88
2023-05-07T08:18:11.847Z,100155.63
2023-05-07T08:20:43.619Z,100147.66
2023-05-07T08:23:18.248Z,100156.91
2023-05-07T08:25:49.114Z,100159.19
2023-05-07T08:28:22.629Z,100162.03
2023-05-07T08:30:52.690Z,100154.19
2023-05-07T08:33:22.522Z,100160.84
2023-05-07T08:35:52.242Z,100158.66
2023-05-07T08:38:22.297Z,100160.91
2023-05-07T08:40:52.406Z,100154.16
2023-05-07T08:43:30.815Z,100157.84
2023-05-07T08:46:06.990Z,100158.81
2023-05-07T08:48:40.100Z,100153.69
2023-05-07T08:51:16.690Z,100158.56
2023-05-07T08:53:47.229Z,100172.44
2023-05-07T08:56:22.381Z,100168.09
2023-05-07T08:58:57.795Z,100162.47
2023-05-07T09:01:28.966Z,100162.03
2023-05-07T09:04:00.282Z,100150.59
2023-05-07T09:06:31.745Z,100152.41
2023-05-07T09:09:02.418Z,100152.88
2023-05-07T09:11:33.944Z,100148.50
2023-05-07T09:14:07.596Z,100144.59
2023-05-07T09:16:43.315Z,100142.75
2023-05-07T09:19:13.268Z,100145.94
2023-05-07T09:21:48.149Z,100144.38
2023-05-07T09:24:19.895Z,100148.09
2023-05-07T09:26:50.090Z,100157.34
2023-05-07T09:29:23.115Z,100161.09
2023-05-07T09:31:53.048Z,100161.56
2023-05-07T09:34:23.377Z,100162.16
2023-05-07T09:36:57.851Z,100167.41
2023-05-07T09:39:27.794Z,100160.38
2023-05-07T09:41:59.640Z,100170.81
2023-05-07T09:44:39.075Z,100174.56
2023-05-07T09:47:15.675Z,100176.00
2023-05-07T09:49:51.436Z,100164.22
2023-05-07T09:52:24.577Z,100164.38
2023-05-07T09:55:00.345Z,100171.81
2023-05-07T09:57:34.437Z,100171.66
2023-05-07T10:00:12.607Z,100159.34
2023-05-07T10:02:53.574Z,100172.59
2023-05-07T10:05:31.631Z,100168.34
2023-05-07T10:08:05.083Z,100166.75
2023-05-07T10:10:37.925Z,100162.34
2023-05-07T10:13:12.030Z,100158.09
2023-05-07T10:15:48.541Z,100164.00
2023-05-07T10:18:19.479Z,100166.09
2023-05-07T10:20:55.118Z,100167.47
2023-05-07T10:23:28.701Z,100165.28
2023-05-07T10:26:02.851Z,100169.34
2023-05-07T10:28:39.522Z,100169.84
2023-05-07T10:31:41.659Z,100171.34
2023-05-07T10:34:13.839Z,100168.69
2023-05-07T10:36:44.406Z,100170.75
2023-05-07T10:39:14.390Z,100164.69
2023-05-07T10:41:44.713Z,100163.94
2023-05-07T10:44:15.002Z,100162.03
2023-05-07T10:47:10.769Z,100152.84
2023-05-07T10:50:27.239Z,100158.88
2023-05-07T10:53:31.313Z,100151.97
2023-05-07T10:56:30.227Z,100148.47
2023-05-07T10:59:43.187Z,100146.63
2023-05-07T11:03:11.900Z,100140.72
2023-05-07T11:05:50.620Z,100159.91
2023-05-07T11:08:26.475Z,100150.03
2023-05-07T11:11:05.643Z,100142.94
2023-05-07T11:13:47.490Z,100160.19
2023-05-07T11:16:38.932Z,100161.97
2023-05-07T11:19:54.635Z,100155.81
2023-05-07T11:22:50.570Z,100162.47
2023-05-07T11:25:31.249Z,100159.53
2023-05-07T11:28:13.014Z,100160.81
2023-05-07T11:30:57.432Z,100150.53
2023-05-07T11:33:28.350Z,100156.44
2023-05-07T11:36:03.934Z,100156.78
2023-05-07T11:38:40.050Z,100157.03
2023-05-07T11:41:11.417Z,100151.72
2023-05-07T11:43:41.324Z,100153.66
2023-05-07T11:46:13.544Z,100148.63
2023-05-07T11:48:43.865Z,100153.00
2023-05-07T11:51:16.552Z,100152.94
2023-05-07T11:53:48.050Z,100161.16
2023-05-07T11:56:19.636Z,100166.63
2023-05-07T11:58:52.158Z,100154.28
2023-05-07T12:01:21.920Z,100156.84
2023-05-07T12:03:51.703Z,100158.47
2023-05-07T12:06:24.179Z,100156.34
2023-05-07T12:08:54.170Z,100163.28
2023-05-07T12:11:28.539Z,100160.94
2023-05-07T12:13:59.465Z,100163.16
2023-05-07T12:16:30.380Z,100176.13
2023-05-07T12:19:00.959Z,100166.78
2023-05-07T12:21:33.460Z,100178.59
2023-05-07T12:24:03.278Z,100173.31
2023-05-07T12:26:33.112Z,100172.00
2023-05-07T12:29:02.926Z,100182.75
2023-05-07T12:31:33.132Z,100175.44
2023-05-07T12:34:02.944Z,100180.00
2023-05-07T12:36:43.497Z,100170.13
2023-05-07T12:39:13.990Z,100170.22
2023-05-07T12:41:59.719Z,100170.16
2023-05-07T12:44:33.368Z,100181.81
2023-05-07T12:47:05.835Z,100177.03
2023-05-07T12:49:39.977Z,100174.19
2023-05-07T12:52:12.520Z,100177.06
2023-05-07T12:54:42.866Z,100182.19
2023-05-07T12:57:14.002Z,100180.44
2023-05-07T12:59:45.318Z,100172.28
2023-05-07T13:02:15.271Z,100182.34
2023-05-07T13:04:45.514Z,100191.44
2023-05-07T13:07:19.910Z,100183.38
2023-05-07T13:09:49.626Z,100177.34
2023-05-07T13:12:19.386Z,100177.84
2023-05-07T13:14:49.152Z,100177.59
2023-05-07T13:17:19.833Z,100181.41
2023-05-07T13:19:49.652Z,100185.13
2023-05-07T13:22:22.026Z,100172.00
2023-05-07T13:24:51.757Z,100182.50
2023-05-07T13:27:21.889Z,100176.75
2023-05-07T13:29:51.705Z,100173.81
2023-05-07T13:32:21.562Z,100167.72
2023-05-07T13:34:51.612Z,100159.84
2023-05-07T13:37:24.295Z,100152.50
2023-05-07T13:39:54.281Z,100157.59
2023-05-07T13:42:24.080Z,100147.53
2023-05-07T13:44:53.794Z,100153.88
2023-05-07T13:47:24.722Z,100149.41
2023-05-07T13:49:54.653Z,100150.31
2023-05-07T13:52:27.479Z,100142.16
2023-05-07T13:54:57.795Z,100163.56
2023-05-07T13:57:27.755Z,100154.66
2023-05-07T13:59:57.722Z,100151.38
2023-05-07T14:02:27.818Z,100152.22
2023-05-07T14:04:57.661Z,100149.16
2023-05-07T14:07:30.160Z,100152.69
2023-05-07T14:10:01.073Z,100145.34
2023-05-07T14:12:31.089Z,100157.16
2023-05-07T14:15:01.117Z,100153.16
2023-05-07T14:17:31.378Z,100149.56
2023-05-07T14:20:01.971Z,100147.91
2023-05-07T14:22:34.617Z,100150.03
2023-05-07T14:25:07.249Z,100150.56
2023-05-07T14:27:37.428Z,100151.22
2023-05-07T14:30:07.870Z,100154.63
2023-05-07T14:32:38.064Z,100145.72
2023-05-07T14:35:08.686Z,100148.72
2023-05-07T14:37:43.876Z,100142.94
2023-05-07T14:40:15.893Z,100144.00
2023-05-07T14:42:46.137Z,100128.59
2023-05-07T14:45:16.217Z,100139.97
2023-05-07T14:47:46.104Z,100135.28
2023-05-07T14:50:16.230Z,100128.34
2023-05-07T14:52:48.643Z,100127.84
2023-05-07T14:55:18.598Z,100123.88
2023-05-07T14:57:48.508Z,100124.09
2023-05-07T15:00:18.556Z,100136.94
2023-05-07T15:02:48.337Z,100123.53
2023-05-07T15:05:20.020Z,100140.50
2023-05-07T15:07:52.509Z,100142.97
2023-05-07T15:10:22.536Z,100141.28
2023-05-07T15:12:52.355Z,100139.56
2023-05-07T15:15:22.785Z,100143.78
2023-05-07T15:17:53.753Z,100146.00
2023-05-07T15:20:23.694Z,100148.47
2023-05-07T15:22:56.283Z,100141.50
2023-05-07T15:25:26.636Z,100142.53
2023-05-07T15:27:56.421Z,100140.66
2023-05-07T15:30:26.223Z,100146.31
2023-05-07T15:32:56.902Z,100160.81
2023-05-07T15:35:27.151Z,100160.63
2023-05-07T15:38:00.040Z,100166.97
2023-05-07T15:40:29.923Z,100161.81
2023-05-07T15:43:00.128Z,100169.81
2023-05-07T15:45:30.396Z,100168.97
2023-05-07T15:48:00.414Z,100172.41
2023-05-07T15:50:30.361Z,100174.19
2023-05-07T15:53:05.652Z,100172.09
2023-05-07T15:55:36.299Z,100161.91
2023-05-07T15:58:06.894Z,100166.28
2023-05-07T16:00:37.908Z,100165.13
2023-05-07T16:03:08.360Z,100168.31
2023-05-07T16:05:38.535Z,100172.69
2023-05-07T16:08:11.348Z,100166.03
2023-05-07T16:10:41.501Z,100167.13
2023-05-07T16:13:12.030Z,100163.09
2023-05-07T16:15:42.077Z,100172.63
2023-05-07T16:18:12.415Z,100172.56
2023-05-07T16:20:43.265Z,100163.34
2023-05-07T16:23:15.730Z,100159.72
2023-05-07T16:25:45.650Z,100159.06
2023-05-07T16:28:15.522Z,100165.91
2023-05-07T16:30:45.701Z,100162.72
2023-05-07T16:33:16.012Z,100162.72
2023-05-07T16:35:48.014Z,100170.16
2023-05-07T16:38:20.781Z,100163.63
2023-05-07T16:40:50.731Z,100179.41
2023-05-07T16:43:20.921Z,100167.94
2023-05-07T16:45:51.198Z,100175.97
2023-05-07T16:48:21.467Z,100182.00
2023-05-07T16:50:51.383Z,100174.28
2023-05-07T16:53:23.979Z,100177.03
2023-05-07T16:55:56.683Z,100170.31
2023-05-07T16:58:27.487Z,100168.91
2023-05-07T17:00:57.505Z,100177.78
2023-05-07T17:03:27.468Z,100174.75
2023-05-07T17:05:57.815Z,100169.03
2023-05-07T17:08:30.282Z,100174.19
2023-05-07T17:11:00.073Z,100179.25
2023-05-07T17:13:30.206Z,100180.00
2023-05-07T17:16:00.324Z,100185.72
2023-05-07T17:18:30.260Z,100184.47
2023-05-07T17:21:00.201Z,100177.97
2023-05-07T17:23:32.660Z,100171.19
2023-05-07T17:26:02.542Z,100169.34
2023-05-07T17:28:32.666Z,100180.09
2023-05-07T17:31:02.474Z,100171.50
2023-05-07T17:33:32.561Z,100173.97
2023-05-07T17:36:03.217Z,100174.84
2023-05-07T17:38:35.739Z,100181.72
2023-05-07T17:41:06.363Z,100188.75
2023-05-07T17:43:36.313Z,100184.50
2023-05-07T17:46:06.331Z,100185.56
2023-05-07T17:48:36.318Z,100194.38
2023-05-07T17:51:07.067Z,100184.69
2023-05-07T17:53:39.489Z,100184.91
2023-05-07T17:56:09.389Z,100193.94
2023-05-07T17:58:57.274Z,100179.69
2023-05-07T18:01:29.120Z,100192.47
2023-05-07T18:03:59.505Z,100192.78
2023-05-07T18:06:29.622Z,100189.00
2023-05-07T18:09:02.112Z,100188.25
2023-05-07T18:11:33.347Z,100187.94
2023-05-07T18:14:03.372Z,100191.94
2023-05-07T18:16:33.755Z,100187.44
2023-05-07T18:19:04.039Z,100187.94
2023-05-07T18:21:34.233Z,100190.75
2023-05-07T18:24:07.612Z,100196.09
2023-05-07T18:26:37.711Z,100206.69
2023-05-07T18:29:07.459Z,100205.00
2023-05-07T18:31:38.015Z,100216.69
2023-05-07T18:34:08.251Z,100213.34
2023-05-07T18:36:38.291Z,100214.56
2023-05-07T18:39:11.399Z,100221.84
2023-05-07T18:41:42.956Z,100220.59
2023-05-07T18:44:12.945Z,100228.63
2023-05-07T18:46:43.813Z,100230.78
2023-05-07T18:49:13.647Z,100236.22
2023-05-07T18:51:44.292Z,100232.97
2023-05-07T18:54:16.802Z,100229.31
2023-05-07T18:56:48.123Z,100236.09
2023-05-07T18:59:18.015Z,100240.09
2023-05-07T19:01:48.054Z,100252.97
2023-05-07T19:04:18.604Z,100250.63
2023-05-07T19:06:48.588Z,100249.41
2023-05-07T19:09:21.211Z,100241.59
2023-05-07T19:11:53.431Z,100241.75
2023-05-07T19:14:23.282Z,100244.84
2023-05-07T19:16:53.187Z,100240.41
2023-05-07T19:19:23.174Z,100235.03
2023-05-07T19:21:53.283Z,100232.78
2023-05-07T19:24:25.824Z,100233.69
2023-05-07T19:26:56.067Z,100238.84
2023-05-07T19:29:25.944Z,100245.41
2023-05-07T19:31:56.632Z,100250.66
2023-05-07T19:34:27.064Z,100251.88
2023-05-07T19:36:57.427Z,100244.56
2023-05-07T19:39:29.905Z,100251.22
2023-05-07T19:41:59.860Z,100253.69
2023-05-07T19:44:29.699Z,100252.50
2023-05-07T19:47:02.565Z,100261.59
2023-05-07T19:49:32.351Z,100252.31
2023-05-07T19:52:02.276Z,100267.13
2023-05-07T19:54:34.881Z,100267.75
2023-05-07T19:57:04.775Z,100273.63
2023-05-07T19:59:34.924Z,100278.91
2023-05-07T20:02:04.799Z,100279.06
2023-05-07T20:04:38.282Z,100273.59
2023-05-07T20:07:08.362Z,100283.66
2023-05-07T20:09:40.832Z,100284.59
2023-05-07T20:12:11.112Z,100278.13
2023-05-07T20:14:40.909Z,100285.22
2023-05-07T20:17:10.699Z,100284.63
2023-05-07T20:19:40.506Z,100289.28
2023-05-07T20:22:10.313Z,100288.09
2023-05-07T20:24:43.086Z,100303.59
2023-05-07T20:27:13.249Z,100296.31
2023-05-07T20:29:42.954Z,100297.44
2023-05-07T20:32:14.334Z,100290.38
2023-05-07T20:34:44.146Z,100280.97
2023-05-07T20:37:14.610Z,100294.66
2023-05-07T20:39:47.202Z,100292.59
2023-05-07T20:42:17.121Z,100293.44
2023-05-07T20:44:47.212Z,100291.59
2023-05-07T20:47:16.981Z,100295.44
2023-05-07T20:49:46.800Z,100295.91
2023-05-07T20:52:16.590Z,100311.09
2023-05-07T20:54:50.203Z,100314.94
2023-05-07T20:57:20.091Z,100306.34
2023-05-07T20:59:49.797Z,100312.66
2023-05-07T21:02:19.517Z,100320.03
2023-05-07T21:04:51.661Z,100313.09
2023-05-07T21:07:21.384Z,100316.28
2023-05-07T21:09:53.723Z,100317.41
2023-05-07T21:12:24.419Z,100327.06
2023-05-07T21:14:54.404Z,100317.41
2023-05-07T21:17:24.332Z,100317.53
2023-05-07T21:19:54.114Z,100317.44
2023-05-07T21:22:23.834Z,100320.16
2023-05-07T21:24:56.118Z,100324.59
2023-05-07T21:27:25.835Z,100324.25
2023-05-07T21:29:58.844Z,100326.03
2023-05-07T21:32:28.567Z,100331.94
2023-05-07T21:34:58.488Z,100329.34
2023-05-07T21:37:28.306Z,100323.28
2023-05-07T21:40:00.567Z,100323.34
2023-05-07T21:42:31.008Z,100325.53
2023-05-07T21:45:00.727Z,100321.84
2023-05-07T21:47:30.840Z,100315.53
2023-05-07T21:50:00.542Z,100317.31
2023-05-07T21:52:30.207Z,100321.84
2023-05-07T21:55:02.499Z,100319.72
2023-05-07T21:57:32.198Z,100326.97
2023-05-07T22:00:01.965Z,100324.47
2023-05-07T22:02:32.222Z,100331.34
2023-05-07T22:05:02.272Z,100332.56
2023-05-07T22:07:32.079Z,100336.47
2023-05-07T22:10:04.405Z,100334.47
2023-05-07T22:12:34.115Z,100333.28
2023-05-07T22:15:03.874Z,100340.50
2023-05-07T22:17:35.213Z,100340.00
2023-05-07T22:20:04.989Z,100334.09
2023-05-07T22:22:34.674Z,100331.25
2023-05-07T22:25:07.651Z,100336.56
2023-05-07T22:27:37.361Z,100332.19
2023-05-07T22:30:08.401Z,100334.81
2023-05-07T22:32:38.434Z,100332.19
2023-05-07T22:35:08.815Z,100334.53
2023-05-07T22:37:38.597Z,100321.31
2023-05-07T22:40:12.773Z,100323.88
2023-05-07T22:42:42.649Z,100323.06
2023-05-07T22:45:13.729Z,100330.78
2023-05-07T22:47:43.707Z,100320.88
2023-05-07T22:50:14.523Z,100326.97
2023-05-07T22:52:44.367Z,100325.81
2023-05-07T22:55:16.961Z,100322.34
2023-05-07T22:57:46.634Z,100322.22
2023-05-07T23:00:17.259Z,100331.44
2023-05-07T23:02:46.998Z,100325.72
2023-05-07T23:05:17.582Z,100331.91
2023-05-07T23:07:47.274Z,100329.66
2023-05-07T23:10:19.737Z,100329.50
2023-05-07T23:12:50.038Z,100342.63
2023-05-07T23:15:20.513Z,100333.09
2023-05-07T23:17:50.492Z,100322.63
2023-05-07T23:20:20.420Z,100327.47
2023-05-07T23:22:50.096Z,100328.88
2023-05-07T23:25:22.943Z,100336.59
2023-05-07T23:27:52.790Z,100332.31
2023-05-07T23:30:22.763Z,100338.28
2023-05-07T23:32:52.481Z,100337.38
2023-05-07T23:35:25.265Z,100328.25
2023-05-07T23:37:54.954Z,100331.94
2023-05-07T23:40:27.438Z,100330.25
2023-05-07T23:42:57.195Z,100333.28
2023-05-07T23:45:27.123Z,100342.97
2023-05-07T23:47:57.112Z,100344.03
2023-05-07T23:50:26.802Z,100336.63
2023-05-07T23:52:56.473Z,100336.09
2023-05-07T23:55:28.751Z,100336.00
2023-05-07T23:57:58.505Z,100330.13
